Schlegal, Oklahoma
Current Conditions -  °F | °C
As of 2:15 PM on Thursday 29 Jan 2015 (Local Time) from KCUH Reporting Station
Clear Clear  
Wind Chill: 52°   Ceiling: Unl
Heat Index: 52°   Visibility: 10mi
Dew Point: 34°   Wind: 16mph
Humidity: 50%   Direction: 360°N
Pressure: 30.4"   Gusts: 22mph
Location:  35.9968°N, 96.7376°W
Report Text: KCUH 292015Z AUTO 36014G19KT 10SM CLR 11/01 A3040 RMK AO2
Loading
Personal Weather Stations






























Interactive Weather Map New forecast layout! Learn more

10-Day Weather Forecast

Advertisements
Track Severe Weather on mobile